Time;durP1;ratioP1;P1;durP2;ratioP2;P2;SDS_P1;SDS_P2;PMS_P1;PMS_P2;Temp;Humidity;BMP_temperature;BMP_pressure;BME280_temperature;BME280_humidity;BME280_pressure;Samples;Min_cycle;Max_cycle;Signal;HPM_P1;HPM_P2
2023/01/20 00:02:25;;;;;;;22.95;10.48;;;;;;;;;;12836030;19;20371;-65
2023/01/20 00:06:43;;;;;;;26.90;12.05;;;;;;;;;;12836310;19;20359;-65
2023/01/20 00:11:11;;;;;;;23.35;11.43;;;;;;;;;;12835857;19;20550;-65
2023/01/20 00:15:29;;;;;;;26.75;12.82;;;;;;;;;;12835264;19;20396;-65
2023/01/20 00:19:46;;;;;;;23.00;11.10;;;;;;;;;;12835770;19;20372;-65
2023/01/20 00:24:05;;;;;;;28.60;12.87;;;;;;;;;;12836025;19;20335;-66
2023/01/20 00:28:22;;;;;;;34.17;14.07;;;;;;;;;;12835577;19;20705;-66
2023/01/20 00:32:43;;;;;;;27.63;12.37;;;;;;;;;;12832184;19;20433;-65
2023/01/20 00:37:01;;;;;;;28.58;11.23;;;;;;;;;;12834803;19;20709;-67
2023/01/20 00:41:19;;;;;;;22.37;11.57;;;;;;;;;;12834880;19;20499;-65
2023/01/20 00:45:36;;;;;;;23.02;12.07;;;;;;;;;;12834136;19;20466;-65
2023/01/20 00:49:54;;;;;;;22.55;11.27;;;;;;;;;;12832910;19;20470;-66
2023/01/20 00:54:12;;;;;;;22.80;11.15;;;;;;;;;;12833635;19;20472;-65
2023/01/20 00:58:29;;;;;;;21.60;11.03;;;;;;;;;;12833848;19;20506;-65
2023/01/20 01:02:47;;;;;;;28.38;12.15;;;;;;;;;;12834917;19;20563;-65
2023/01/20 01:07:04;;;;;;;26.30;13.20;;;;;;;;;;12831594;19;20011;-65
2023/01/20 01:11:22;;;;;;;20.23;10.13;;;;;;;;;;12839330;19;20485;-65
2023/01/20 01:15:48;;;;;;;28.05;11.43;;;;;;;;;;12844796;19;20385;-66
2023/01/20 01:20:06;;;;;;;21.67;9.63;;;;;;;;;;12843497;19;20383;-67
2023/01/20 01:24:24;;;;;;;19.52;9.35;;;;;;;;;;12846041;19;20359;-66
2023/01/20 01:28:42;;;;;;;22.27;9.38;;;;;;;;;;12843663;19;20346;-65
2023/01/20 01:32:59;;;;;;;15.13;8.38;;;;;;;;;;12844819;19;20542;-66
2023/01/20 01:37:17;;;;;;;17.77;9.80;;;;;;;;;;12844781;19;20010;-65
2023/01/20 01:41:35;;;;;;;16.80;8.93;;;;;;;;;;12843926;19;20565;-65
2023/01/20 01:45:53;;;;;;;17.90;8.77;;;;;;;;;;12844032;19;20142;-65
2023/01/20 01:50:17;;;;;;;;;;;;;;;;;;12843853;19;20483;-65
2023/01/20 01:54:41;;;;;;;18.77;9.45;;;;;;;;;;12841269;19;20359;-65
2023/01/20 01:59:01;;;;;;;18.95;9.15;;;;;;;;;;12843257;19;20369;-66
2023/01/20 02:03:20;;;;;;;22.85;11.65;;;;;;;;;;12842709;19;20474;-66
2023/01/20 02:07:38;;;;;;;36.03;16.83;;;;;;;;;;12843041;19;20318;-65
2023/01/20 02:12:01;;;;;;;62.08;23.13;;;;;;;;;;12842903;19;20329;-66
2023/01/20 02:16:47;;;;;;;60.05;24.98;;;;;;;;;;12841936;19;20777;-65
2023/01/20 02:21:42;;;;;;;46.38;20.42;;;;;;;;;;12840112;19;20473;-65
2023/01/20 02:26:27;;;;;;;38.47;16.77;;;;;;;;;;12837959;19;20514;-66
2023/01/20 02:32:01;;;;;;;52.08;19.75;;;;;;;;;;12840091;19;20506;-65
2023/01/20 02:36:30;;;;;;;31.75;13.68;;;;;;;;;;12834486;19;20007;-65
2023/01/20 02:41:08;;;;;;;29.50;13.25;;;;;;;;;;12838112;19;20383;-65
2023/01/20 02:45:48;;;;;;;32.13;13.93;;;;;;;;;;12844145;19;20040;-65
2023/01/20 02:50:41;;;;;;;23.02;12.60;;;;;;;;;;12841631;19;20350;-66
2023/01/20 02:55:05;;;;;;;24.65;10.60;;;;;;;;;;12837742;19;20347;-65
2023/01/20 02:59:30;;;;;;;23.80;12.00;;;;;;;;;;12838036;19;20018;-65
2023/01/20 03:03:53;;;;;;;25.48;12.68;;;;;;;;;;12840571;19;20375;-65
2023/01/20 03:08:13;;;;;;;24.20;12.13;;;;;;;;;;12837997;19;20338;-65
2023/01/20 03:12:49;;;;;;;26.58;12.02;;;;;;;;;;12839569;19;20350;-65
2023/01/20 03:17:07;;;;;;;24.85;12.07;;;;;;;;;;12837672;19;20464;-65
2023/01/20 03:21:25;;;;;;;30.83;13.48;;;;;;;;;;12838628;19;20438;-65
2023/01/20 03:25:44;;;;;;;;;;;;;;;;;;12839041;19;20429;-65
2023/01/20 03:30:15;;;;;;;25.83;12.05;;;;;;;;;;12837638;19;20325;-65
2023/01/20 03:34:35;;;;;;;27.75;13.45;;;;;;;;;;12835739;19;20495;-65
2023/01/20 03:38:55;;;;;;;31.55;15.75;;;;;;;;;;12836973;19;20010;-65
2023/01/20 03:43:26;;;;;;;33.80;15.38;;;;;;;;;;12835235;19;20489;-65
2023/01/20 03:48:25;;;;;;;26.02;13.15;;;;;;;;;;12835972;19;20367;-66
2023/01/20 03:52:56;;;;;;;26.38;13.10;;;;;;;;;;12834900;19;20297;-65
2023/01/20 03:57:20;;;;;;;21.23;11.63;;;;;;;;;;12836302;19;20070;-65
2023/01/20 04:01:43;;;;;;;26.15;13.20;;;;;;;;;;12835672;19;20048;-65
2023/01/20 04:06:05;;;;;;;28.48;12.80;;;;;;;;;;12835917;19;20481;-65
2023/01/20 04:10:26;;;;;;;26.17;12.80;;;;;;;;;;12836112;19;20368;-65
2023/01/20 04:14:44;;;;;;;27.63;11.73;;;;;;;;;;12833378;19;20371;-66
2023/01/20 04:19:03;;;;;;;25.73;12.30;;;;;;;;;;12835590;19;20461;-65
2023/01/20 04:23:46;;;;;;;23.85;11.70;;;;;;;;;;12834393;19;20066;-66
2023/01/20 04:28:05;;;;;;;24.70;12.20;;;;;;;;;;12833957;19;20465;-65
2023/01/20 04:32:22;;;;;;;22.07;11.43;;;;;;;;;;12834251;19;20094;-65
2023/01/20 04:36:41;;;;;;;27.47;13.17;;;;;;;;;;12835658;19;20484;-65
2023/01/20 04:40:58;;;;;;;24.63;11.45;;;;;;;;;;12839420;19;20772;-65
2023/01/20 04:45:19;;;;;;;21.67;11.02;;;;;;;;;;12838812;19;20032;-65
2023/01/20 04:49:36;;;;;;;19.48;10.40;;;;;;;;;;12847510;19;20363;-65
2023/01/20 04:53:58;;;;;;;20.23;9.90;;;;;;;;;;12844895;19;20421;-66
2023/01/20 04:58:16;;;;;;;21.42;9.95;;;;;;;;;;12846856;19;20354;-65
2023/01/20 05:02:33;;;;;;;21.10;11.70;;;;;;;;;;12848367;19;20475;-64
2023/01/20 05:06:51;;;;;;;22.23;10.32;;;;;;;;;;12846576;19;20452;-65
2023/01/20 05:11:09;;;;;;;19.95;9.93;;;;;;;;;;12846384;19;20425;-65
2023/01/20 05:15:27;;;;;;;21.42;10.25;;;;;;;;;;12846097;19;20151;-65
2023/01/20 05:19:45;;;;;;;19.42;10.85;;;;;;;;;;12845465;19;20472;-65
2023/01/20 05:24:03;;;;;;;21.98;10.15;;;;;;;;;;12846451;19;20384;-65
2023/01/20 05:28:21;;;;;;;19.10;9.93;;;;;;;;;;12844950;19;20485;-65
2023/01/20 05:32:38;;;;;;;20.80;9.27;;;;;;;;;;12821456;19;20510;-65
2023/01/20 05:36:56;;;;;;;19.48;8.98;;;;;;;;;;12845691;19;20345;-65
2023/01/20 05:41:14;;;;;;;19.73;11.13;;;;;;;;;;12847708;19;20327;-66
2023/01/20 05:45:32;;;;;;;17.45;9.75;;;;;;;;;;12845702;19;20275;-65
2023/01/20 05:49:50;;;;;;;;;;;;;;;;;;12843813;19;20366;-66
2023/01/20 05:54:07;;;;;;;28.83;13.70;;;;;;;;;;12843397;19;20284;-65
2023/01/20 05:58:25;;;;;;;21.42;11.45;;;;;;;;;;12840335;19;20375;-65
2023/01/20 06:02:42;;;;;;;21.80;10.70;;;;;;;;;;12843903;19;20011;-66
2023/01/20 06:07:00;;;;;;;25.95;11.70;;;;;;;;;;12843798;19;20488;-65
2023/01/20 06:11:18;;;;;;;27.03;13.57;;;;;;;;;;12843640;19;20358;-65
2023/01/20 06:15:36;;;;;;;20.15;11.40;;;;;;;;;;12842861;19;20007;-66
2023/01/20 06:19:54;;;;;;;;;;;;;;;;;;12843491;19;20416;-66
2023/01/20 06:24:11;;;;;;;44.57;18.93;;;;;;;;;;12840432;19;20252;-66
2023/01/20 06:28:29;;;;;;;24.83;12.03;;;;;;;;;;12841469;19;20032;-66
2023/01/20 06:32:47;;;;;;;24.40;11.80;;;;;;;;;;12841149;19;20595;-64
2023/01/20 06:37:05;;;;;;;19.58;9.70;;;;;;;;;;12841192;19;20829;-65
2023/01/20 06:41:23;;;;;;;22.83;11.63;;;;;;;;;;12841650;19;20457;-65
2023/01/20 06:45:40;;;;;;;17.73;10.43;;;;;;;;;;12841076;19;20489;-65
2023/01/20 06:49:58;;;;;;;16.75;8.68;;;;;;;;;;12841214;19;20492;-65
2023/01/20 06:54:16;;;;;;;20.73;10.50;;;;;;;;;;12841103;19;20007;-65
2023/01/20 06:58:33;;;;;;;19.80;10.25;;;;;;;;;;12840275;19;20753;-65
2023/01/20 07:02:51;;;;;;;26.60;14.10;;;;;;;;;;12839911;19;20436;-67
2023/01/20 07:07:11;;;;;;;31.75;15.70;;;;;;;;;;12838285;19;20298;-66
2023/01/20 07:11:30;;;;;;;23.63;12.48;;;;;;;;;;12841751;19;20464;-65
2023/01/20 07:15:47;;;;;;;18.38;8.95;;;;;;;;;;12839075;19;20010;-65
2023/01/20 07:20:06;;;;;;;39.60;15.10;;;;;;;;;;12840140;19;20485;-65
2023/01/20 07:24:23;;;;;;;81.05;28.15;;;;;;;;;;12839540;19;20380;-65
2023/01/20 07:28:41;;;;;;;39.13;16.48;;;;;;;;;;12840070;19;20433;-65
2023/01/20 07:32:59;;;;;;;43.30;17.52;;;;;;;;;;12838733;19;20403;-65
2023/01/20 07:37:16;;;;;;;105.28;34.95;;;;;;;;;;12838850;19;20095;-65
2023/01/20 07:41:34;;;;;;;144.67;49.20;;;;;;;;;;12837879;19;20330;-65
2023/01/20 07:45:56;;;;;;;114.07;42.17;;;;;;;;;;12838453;19;20362;-66
2023/01/20 07:50:14;;;;;;;111.72;38.88;;;;;;;;;;12837231;19;20582;-65
2023/01/20 07:54:32;;;;;;;;;;;;;;;;;;12838334;19;20404;-65
2023/01/20 07:58:50;;;;;;;42.00;20.47;;;;;;;;;;12840194;19;20345;-65
2023/01/20 08:03:08;;;;;;;64.22;23.33;;;;;;;;;;12836866;19;20363;-65
2023/01/20 08:07:25;;;;;;;86.97;30.30;;;;;;;;;;12837237;19;20078;-65
2023/01/20 08:11:43;;;;;;;27.90;12.20;;;;;;;;;;12836831;19;20543;-65
2023/01/20 08:16:07;;;;;;;22.80;10.03;;;;;;;;;;12839494;19;20473;-65
2023/01/20 08:20:25;;;;;;;60.22;25.98;;;;;;;;;;12842961;19;20453;-65
2023/01/20 08:24:43;;;;;;;43.10;19.80;;;;;;;;;;12849047;19;20475;-65
2023/01/20 08:29:08;;;;;;;28.47;12.63;;;;;;;;;;12848655;19;20070;-66
2023/01/20 08:33:26;;;;;;;23.25;13.35;;;;;;;;;;12849343;19;20769;-66
2023/01/20 08:37:43;;;;;;;24.35;12.02;;;;;;;;;;12848156;19;20380;-65
2023/01/20 08:42:01;;;;;;;21.85;11.73;;;;;;;;;;12847341;19;20002;-66
2023/01/20 08:46:20;;;;;;;18.38;10.30;;;;;;;;;;12847287;19;20006;-65
2023/01/20 08:50:38;;;;;;;17.63;9.10;;;;;;;;;;12847185;19;20449;-66
2023/01/20 08:54:57;;;;;;;24.58;14.57;;;;;;;;;;12848091;19;20019;-65
2023/01/20 08:59:15;;;;;;;28.30;13.98;;;;;;;;;;12845918;19;20417;-66
2023/01/20 09:03:32;;;;;;;17.20;9.15;;;;;;;;;;12846197;19;20351;-65
2023/01/20 09:07:50;;;;;;;27.90;12.30;;;;;;;;;;12850136;19;20510;-65
2023/01/20 09:12:08;;;;;;;24.35;13.45;;;;;;;;;;12846075;19;20592;-66
2023/01/20 09:16:25;;;;;;;28.88;13.93;;;;;;;;;;12845557;19;20472;-67
2023/01/20 09:20:43;;;;;;;16.10;8.10;;;;;;;;;;12845840;19;20357;-65
2023/01/20 09:25:01;;;;;;;24.83;10.43;;;;;;;;;;12846373;19;20460;-66
2023/01/20 09:29:19;;;;;;;19.88;9.32;;;;;;;;;;12845428;19;20357;-66
2023/01/20 09:33:38;;;;;;;15.38;8.07;;;;;;;;;;12842180;19;20457;-66
2023/01/20 09:47:52;;;;;;;11.50;6.37;;;;;;;;;;12844700;19;20094;-66
2023/01/20 09:57:00;;;;;;;13.10;7.05;;;;;;;;;;12842208;19;20311;-65
2023/01/20 10:01:53;;;;;;;16.92;7.82;;;;;;;;;;12841866;19;20468;-66
2023/01/20 10:06:41;;;;;;;12.10;7.00;;;;;;;;;;12842107;19;20318;-67
2023/01/20 10:11:18;;;;;;;14.18;7.90;;;;;;;;;;12841996;19;20469;-66
2023/01/20 10:15:39;;;;;;;12.80;7.10;;;;;;;;;;12841688;19;20393;-66
2023/01/20 10:20:36;;;;;;;15.98;8.18;;;;;;;;;;12842911;19;20481;-66
2023/01/20 10:25:26;;;;;;;15.35;7.85;;;;;;;;;;12843072;19;20376;-66
2023/01/20 10:29:50;;;;;;;14.80;8.30;;;;;;;;;;12839302;19;20481;-66
2023/01/20 10:34:15;;;;;;;15.82;8.90;;;;;;;;;;12839374;19;20067;-66
2023/01/20 10:38:54;;;;;;;49.55;20.95;;;;;;;;;;12841047;19;20460;-66
2023/01/20 10:43:15;;;;;;;40.33;18.55;;;;;;;;;;12838700;19;20310;-66
2023/01/20 10:47:59;;;;;;;20.88;10.80;;;;;;;;;;12841256;19;20567;-66
2023/01/20 10:52:57;;;;;;;15.73;9.07;;;;;;;;;;12841886;19;20378;-67
2023/01/20 10:57:15;;;;;;;16.80;9.82;;;;;;;;;;12839373;19;20489;-66
2023/01/20 11:01:33;;;;;;;13.05;8.45;;;;;;;;;;12840732;19;20468;-66
2023/01/20 11:05:51;;;;;;;26.52;15.70;;;;;;;;;;12838913;19;20010;-66
2023/01/20 11:10:23;;;;;;;24.70;14.18;;;;;;;;;;12839154;19;20464;-65
2023/01/20 11:14:42;;;;;;;18.00;10.55;;;;;;;;;;12839033;19;20373;-65
2023/01/20 11:19:06;;;;;;;21.70;12.00;;;;;;;;;;12839982;19;20480;-65
2023/01/20 11:23:45;;;;;;;35.50;20.08;;;;;;;;;;12838981;19;20375;-66
2023/01/20 11:28:04;;;;;;;21.77;12.93;;;;;;;;;;12839657;19;20510;-65
2023/01/20 11:32:38;;;;;;;18.25;12.02;;;;;;;;;;12837559;19;20351;-65
2023/01/20 11:37:05;;;;;;;15.63;8.77;;;;;;;;;;12838802;19;20015;-66
2023/01/20 11:41:30;;;;;;;15.48;8.23;;;;;;;;;;12837408;19;20372;-65
2023/01/20 11:45:47;;;;;;;17.95;9.35;;;;;;;;;;12837762;19;20431;-65
2023/01/20 11:50:08;;;;;;;15.43;9.15;;;;;;;;;;12838570;19;20338;-65
2023/01/20 11:54:28;;;;;;;17.60;9.43;;;;;;;;;;12835333;19;20019;-65
2023/01/20 11:59:00;;;;;;;15.70;9.45;;;;;;;;;;12836975;19;20114;-66
2023/01/20 12:04:09;;;;;;;14.65;9.40;;;;;;;;;;12836910;19;20500;-65
2023/01/20 12:08:49;;;;;;;26.48;11.35;;;;;;;;;;12835175;19;20660;-65
2023/01/20 12:13:23;;;;;;;17.05;9.68;;;;;;;;;;12813903;19;20480;-65
2023/01/20 12:18:03;;;;;;;22.10;10.98;;;;;;;;;;12834464;19;20433;-65
2023/01/20 12:22:30;;;;;;;23.63;12.15;;;;;;;;;;12836768;19;20502;-66
2023/01/20 12:26:48;;;;;;;18.17;10.75;;;;;;;;;;12834933;19;20363;-65
2023/01/20 12:31:09;;;;;;;19.35;10.65;;;;;;;;;;12833680;19;20363;-65
2023/01/20 12:35:37;;;;;;;25.10;12.75;;;;;;;;;;12834857;19;20384;-65
2023/01/20 12:40:25;;;;;;;35.08;15.35;;;;;;;;;;12833680;19;20014;-65
2023/01/20 12:44:56;;;;;;;22.73;11.85;;;;;;;;;;12836632;19;20367;-65
2023/01/20 12:49:33;;;;;;;25.85;12.45;;;;;;;;;;12832829;19;20443;-65
2023/01/20 12:54:15;;;;;;;42.33;16.70;;;;;;;;;;12836327;19;20358;-66
2023/01/20 12:58:48;;;;;;;47.42;14.93;;;;;;;;;;12834174;19;20464;-65
2023/01/20 13:03:31;;;;;;;29.42;11.15;;;;;;;;;;12833946;19;20472;-66
2023/01/20 13:07:55;;;;;;;23.73;11.98;;;;;;;;;;12839997;19;20010;-65
2023/01/20 13:12:38;;;;;;;25.15;10.45;;;;;;;;;;12843781;19;20066;-65
2023/01/20 13:17:12;;;;;;;30.80;14.40;;;;;;;;;;12844859;19;20022;-65
2023/01/20 13:21:33;;;;;;;33.80;14.57;;;;;;;;;;12846031;19;20529;-65
2023/01/20 13:25:51;;;;;;;30.50;13.73;;;;;;;;;;12846718;19;20464;-65
2023/01/20 13:30:49;;;;;;;28.75;12.10;;;;;;;;;;12843745;19;20363;-65
2023/01/20 13:35:16;;;;;;;27.10;13.63;;;;;;;;;;12844926;19;20444;-66
2023/01/20 13:39:40;;;;;;;27.15;14.00;;;;;;;;;;12845954;19;20302;-66
2023/01/20 13:43:58;;;;;;;24.13;12.23;;;;;;;;;;12845264;19;20040;-65
2023/01/20 13:48:22;;;;;;;31.77;18.33;;;;;;;;;;12842059;19;20475;-65
2023/01/20 13:52:48;;;;;;;26.40;14.13;;;;;;;;;;12843832;19;20367;-66
2023/01/20 13:57:19;;;;;;;31.40;15.52;;;;;;;;;;12843757;19;20399;-67
2023/01/20 14:01:38;;;;;;;22.25;11.27;;;;;;;;;;12843949;19;20396;-65
2023/01/20 14:06:00;;;;;;;26.95;12.68;;;;;;;;;;12843856;19;20464;-65
2023/01/20 14:10:19;;;;;;;59.28;25.45;;;;;;;;;;12843947;19;20457;-65
2023/01/20 14:14:40;;;;;;;;;;;;;;;;;;12844046;19;20351;-65
2023/01/20 14:19:04;;;;;;;47.13;27.10;;;;;;;;;;12839549;19;20246;-66
2023/01/20 14:23:34;;;;;;;34.85;14.80;;;;;;;;;;12840260;19;20306;-66
2023/01/20 14:27:52;;;;;;;28.35;13.40;;;;;;;;;;12841798;19;20011;-65
2023/01/20 14:32:18;;;;;;;50.67;19.17;;;;;;;;;;12839153;19;20018;-66
2023/01/20 14:36:38;;;;;;;58.97;20.20;;;;;;;;;;12840881;19;20037;-65
2023/01/20 14:40:56;;;;;;;19.63;11.98;;;;;;;;;;12841682;19;20007;-65
2023/01/20 14:45:22;;;;;;;23.05;12.70;;;;;;;;;;12840452;19;20372;-65
2023/01/20 14:49:42;;;;;;;18.90;11.20;;;;;;;;;;12838735;19;20014;-65
2023/01/20 14:54:35;;;;;;;18.85;11.55;;;;;;;;;;12837552;19;20472;-65
2023/01/20 14:58:54;;;;;;;22.25;11.90;;;;;;;;;;12837199;19;20360;-66
2023/01/20 15:03:19;;;;;;;29.80;15.30;;;;;;;;;;12836991;19;20437;-65
2023/01/20 15:07:37;;;;;;;22.35;9.65;;;;;;;;;;12837810;19;20338;-64
2023/01/20 15:12:32;;;;;;;21.65;11.20;;;;;;;;;;12839728;19;20426;-64
2023/01/20 15:16:51;;;;;;;35.28;13.38;;;;;;;;;;12838908;19;20424;-66
2023/01/20 15:21:24;;;;;;;24.27;9.80;;;;;;;;;;12837900;19;20350;-64
2023/01/20 15:25:41;;;;;;;32.53;12.75;;;;;;;;;;12837312;19;20355;-64
2023/01/20 15:30:24;;;;;;;39.75;13.38;;;;;;;;;;12835933;19;20350;-65
2023/01/20 15:34:42;;;;;;;25.77;10.77;;;;;;;;;;12836902;19;20436;-64
2023/01/20 15:39:00;;;;;;;21.75;9.63;;;;;;;;;;12839004;19;20329;-65
2023/01/20 15:43:17;;;;;;;40.67;17.45;;;;;;;;;;12837938;19;20357;-64
2023/01/20 15:47:35;;;;;;;24.13;12.10;;;;;;;;;;12837608;19;20363;-64
2023/01/20 15:51:53;;;;;;;40.63;15.55;;;;;;;;;;12836528;19;20441;-65
2023/01/20 15:56:20;;;;;;;24.42;11.82;;;;;;;;;;12835876;19;20425;-65
2023/01/20 16:00:42;;;;;;;32.20;16.52;;;;;;;;;;12837716;19;20384;-65
2023/01/20 16:04:59;;;;;;;56.75;17.98;;;;;;;;;;12835905;19;20551;-64
2023/01/20 16:09:28;;;;;;;76.95;24.10;;;;;;;;;;12837388;19;20465;-64
2023/01/20 16:13:46;;;;;;;61.30;17.58;;;;;;;;;;12834157;19;20035;-66
2023/01/20 16:18:04;;;;;;;25.00;9.55;;;;;;;;;;12836071;19;20374;-65
2023/01/20 16:22:22;;;;;;;35.45;11.57;;;;;;;;;;12836671;19;20449;-64
2023/01/20 16:26:44;;;;;;;29.13;11.35;;;;;;;;;;12837179;19;20465;-65
2023/01/20 16:31:02;;;;;;;46.67;14.57;;;;;;;;;;12834331;19;20006;-65
2023/01/20 16:35:22;;;;;;;36.50;16.27;;;;;;;;;;12833736;19;20457;-65
2023/01/20 16:39:40;;;;;;;36.38;13.20;;;;;;;;;;12837754;19;20449;-64
2023/01/20 16:43:58;;;;;;;20.08;9.43;;;;;;;;;;12848186;19;20432;-64
2023/01/20 16:48:15;;;;;;;44.88;14.82;;;;;;;;;;12845269;19;20007;-65
2023/01/20 16:52:34;;;;;;;32.58;13.20;;;;;;;;;;12847543;19;20476;-65
2023/01/20 16:56:51;;;;;;;27.83;12.95;;;;;;;;;;12846339;19;20436;-64
2023/01/20 17:01:12;;;;;;;32.95;13.57;;;;;;;;;;12844984;19;20021;-64
2023/01/20 17:05:29;;;;;;;28.05;12.00;;;;;;;;;;12843221;19;20027;-65
2023/01/20 17:09:47;;;;;;;37.60;14.40;;;;;;;;;;12846200;19;20351;-64
2023/01/20 17:14:08;;;;;;;25.92;12.20;;;;;;;;;;12844474;19;20470;-64
2023/01/20 17:18:25;;;;;;;24.80;11.13;;;;;;;;;;12845346;19;20302;-67
2023/01/20 17:22:43;;;;;;;19.20;8.83;;;;;;;;;;12843721;19;20510;-65
2023/01/20 17:27:01;;;;;;;21.33;9.60;;;;;;;;;;12842788;19;20351;-68
2023/01/20 17:31:18;;;;;;;20.20;9.75;;;;;;;;;;12844030;19;20367;-64
2023/01/20 17:35:36;;;;;;;27.67;11.20;;;;;;;;;;12845023;19;20464;-64
2023/01/20 17:39:54;;;;;;;15.02;8.35;;;;;;;;;;12845448;19;20473;-65
2023/01/20 17:44:12;;;;;;;21.50;13.00;;;;;;;;;;12843993;19;20014;-64
2023/01/20 17:48:29;;;;;;;16.10;7.82;;;;;;;;;;12844635;19;20478;-64
2023/01/20 17:52:47;;;;;;;22.23;9.30;;;;;;;;;;12843641;19;20338;-65
2023/01/20 17:57:05;;;;;;;20.08;9.13;;;;;;;;;;12841864;19;20379;-64
2023/01/20 18:01:26;;;;;;;17.20;9.20;;;;;;;;;;12843859;19;20448;-65
2023/01/20 18:05:44;;;;;;;32.13;11.55;;;;;;;;;;12843291;19;20440;-64
2023/01/20 18:10:01;;;;;;;18.98;6.70;;;;;;;;;;12843633;19;20413;-65
2023/01/20 18:14:19;;;;;;;16.17;6.82;;;;;;;;;;12842973;19;20485;-65
2023/01/20 18:18:42;;;;;;;23.67;9.63;;;;;;;;;;12842457;19;20437;-64
2023/01/20 18:22:59;;;;;;;29.08;9.27;;;;;;;;;;12845547;19;20433;-65
2023/01/20 18:27:18;;;;;;;18.15;7.43;;;;;;;;;;12842021;19;20334;-65
2023/01/20 18:31:35;;;;;;;14.27;7.10;;;;;;;;;;12841577;19;20351;-65
2023/01/20 18:35:54;;;;;;;12.75;6.45;;;;;;;;;;12842296;19;20326;-67
2023/01/20 18:40:12;;;;;;;14.77;6.68;;;;;;;;;;12839154;19;20336;-64
2023/01/20 18:44:31;;;;;;;14.25;6.57;;;;;;;;;;12842544;19;20307;-65
2023/01/20 18:48:50;;;;;;;11.57;5.93;;;;;;;;;;12840690;19;20399;-64
2023/01/20 18:53:08;;;;;;;14.25;6.97;;;;;;;;;;12841202;19;20698;-64
2023/01/20 18:57:26;;;;;;;9.45;6.03;;;;;;;;;;12842222;19;20569;-64
2023/01/20 19:01:44;;;;;;;8.63;5.43;;;;;;;;;;12839926;19;20354;-64
2023/01/20 19:06:11;;;;;;;12.45;6.85;;;;;;;;;;12838094;19;20010;-65
2023/01/20 19:10:29;;;;;;;13.13;6.38;;;;;;;;;;12840171;19;20361;-64
2023/01/20 19:14:46;;;;;;;12.18;6.93;;;;;;;;;;12839022;19;20354;-65
2023/01/20 19:19:05;;;;;;;10.15;6.28;;;;;;;;;;12839472;19;20643;-65
2023/01/20 19:23:23;;;;;;;21.25;6.55;;;;;;;;;;12839543;19;20035;-65
2023/01/20 19:27:41;;;;;;;12.63;5.82;;;;;;;;;;12838932;19;20430;-65
2023/01/20 19:31:58;;;;;;;12.43;6.40;;;;;;;;;;12839957;19;20349;-65
2023/01/20 19:36:18;;;;;;;11.82;5.70;;;;;;;;;;12837455;19;20584;-65
2023/01/20 19:40:35;;;;;;;15.77;6.32;;;;;;;;;;12839055;19;20468;-65
2023/01/20 19:44:53;;;;;;;15.77;7.35;;;;;;;;;;12838936;19;20010;-65
2023/01/20 19:49:11;;;;;;;9.40;4.57;;;;;;;;;;12837598;19;20477;-65
2023/01/20 19:53:29;;;;;;;12.07;5.35;;;;;;;;;;12837936;19;20415;-65
2023/01/20 19:57:47;;;;;;;18.23;6.95;;;;;;;;;;12837083;19;20022;-65
2023/01/20 20:02:10;;;;;;;19.40;5.87;;;;;;;;;;12838104;19;20011;-65
2023/01/20 20:06:42;;;;;;;16.67;5.82;;;;;;;;;;12838479;19;20465;-65
2023/01/20 20:11:03;;;;;;;15.38;6.93;;;;;;;;;;12837546;19;20420;-65
2023/01/20 20:15:20;;;;;;;19.08;8.55;;;;;;;;;;12838955;19;20485;-66
2023/01/20 20:19:38;;;;;;;29.58;7.75;;;;;;;;;;12848543;19;20014;-65
2023/01/20 20:23:58;;;;;;;15.97;6.33;;;;;;;;;;12848164;19;20494;-66
2023/01/20 20:28:17;;;;;;;13.05;4.65;;;;;;;;;;12850857;19;20235;-66
2023/01/20 20:32:35;;;;;;;15.57;5.00;;;;;;;;;;12849311;19;20516;-65
2023/01/20 20:36:53;;;;;;;9.13;4.13;;;;;;;;;;12848212;19;20377;-65
2023/01/20 20:41:11;;;;;;;;;;;;;;;;;;12848046;19;20380;-65
2023/01/20 20:45:29;;;;;;;15.02;5.47;;;;;;;;;;12848417;19;19919;-65
2023/01/20 20:49:47;;;;;;;15.48;6.75;;;;;;;;;;12845941;19;20403;-65
2023/01/20 20:54:04;;;;;;;12.75;5.80;;;;;;;;;;12847293;19;20014;-65
2023/01/20 20:58:22;;;;;;;9.95;6.28;;;;;;;;;;12846120;19;20325;-65
2023/01/20 21:02:41;;;;;;;7.75;5.18;;;;;;;;;;12848119;19;20482;-65
2023/01/20 21:06:59;;;;;;;6.00;3.58;;;;;;;;;;12847273;19;20384;-65
2023/01/20 21:11:19;;;;;;;9.55;4.40;;;;;;;;;;12846917;19;20362;-65
2023/01/20 21:15:37;;;;;;;26.13;8.38;;;;;;;;;;12846284;19;20367;-65
2023/01/20 21:19:54;;;;;;;14.05;5.75;;;;;;;;;;12340756;19;10000385;-65
2023/01/20 21:24:12;;;;;;;11.70;4.27;;;;;;;;;;12843913;19;20368;-65
2023/01/20 21:28:31;;;;;;;17.98;6.43;;;;;;;;;;12842560;19;20302;-65
2023/01/20 21:32:49;;;;;;;10.77;4.03;;;;;;;;;;12844902;19;20502;-65
2023/01/20 21:37:07;;;;;;;12.82;4.60;;;;;;;;;;12843936;19;20426;-65
2023/01/20 21:41:25;;;;;;;10.43;3.47;;;;;;;;;;12848095;19;20392;-65
2023/01/20 21:45:42;;;;;;;12.95;6.95;;;;;;;;;;12844829;19;20473;-65
2023/01/20 21:54:38;;;;;;;11.73;5.60;;;;;;;;;;12844445;19;20388;-65
2023/01/20 21:58:56;;;;;;;13.77;4.47;;;;;;;;;;12845073;19;20493;-64
2023/01/20 22:03:13;;;;;;;16.67;4.80;;;;;;;;;;12842900;19;20018;-66
2023/01/20 22:07:31;;;;;;;26.50;7.50;;;;;;;;;;12844543;19;20493;-65
2023/01/20 22:11:49;;;;;;;10.53;3.67;;;;;;;;;;12843686;19;20027;-65
2023/01/20 22:16:07;;;;;;;;;;;;;;;;;;12842687;19;20376;-64
2023/01/20 22:20:24;;;;;;;13.50;3.33;;;;;;;;;;12842678;19;20317;-64
2023/01/20 22:24:42;;;;;;;21.25;4.85;;;;;;;;;;12843194;19;20489;-66
2023/01/20 22:28:59;;;;;;;16.13;4.93;;;;;;;;;;12843516;19;20363;-65
2023/01/20 22:33:17;;;;;;;10.85;3.80;;;;;;;;;;12842230;19;20752;-66
2023/01/20 22:37:35;;;;;;;12.32;4.22;;;;;;;;;;12839733;19;20363;-65
2023/01/20 22:41:53;;;;;;;14.48;4.82;;;;;;;;;;12842814;19;20086;-65
2023/01/20 22:46:12;;;;;;;18.98;8.75;;;;;;;;;;12840636;19;20066;-65
2023/01/20 22:50:33;;;;;;;3.80;2.25;;;;;;;;;;12840930;19;20395;-65
2023/01/20 22:54:50;;;;;;;7.60;3.50;;;;;;;;;;12840989;19;20010;-65
2023/01/20 22:59:11;;;;;;;11.35;3.75;;;;;;;;;;12806916;19;20487;-65
2023/01/20 23:03:29;;;;;;;42.20;10.00;;;;;;;;;;12839498;19;20433;-64
2023/01/20 23:07:47;;;;;;;13.88;4.40;;;;;;;;;;12826165;19;122619;-65
2023/01/20 23:12:05;;;;;;;11.07;2.75;;;;;;;;;;12840092;19;20529;-65
2023/01/20 23:16:22;;;;;;;6.93;2.92;;;;;;;;;;12839523;19;20297;-66
2023/01/20 23:20:40;;;;;;;8.38;3.00;;;;;;;;;;12838679;19;20473;-64
2023/01/20 23:24:58;;;;;;;4.20;2.03;;;;;;;;;;12839523;19;20493;-64
2023/01/20 23:29:15;;;;;;;6.37;2.80;;;;;;;;;;12837517;19;20397;-66
2023/01/20 23:33:33;;;;;;;9.75;3.47;;;;;;;;;;12837487;19;20357;-64
2023/01/20 23:37:51;;;;;;;8.25;2.80;;;;;;;;;;12838201;19;20617;-65
2023/01/20 23:42:08;;;;;;;7.97;2.80;;;;;;;;;;12837736;19;20011;-65
2023/01/20 23:46:26;;;;;;;5.67;2.90;;;;;;;;;;12836236;19;20363;-65
2023/01/20 23:50:44;;;;;;;2.45;1.80;;;;;;;;;;12837596;19;20638;-65
2023/01/20 23:55:02;;;;;;;3.13;2.00;;;;;;;;;;12837638;19;20359;-65
2023/01/20 23:59:19;;;;;;;7.78;3.05;;;;;;;;;;12837433;19;20416;-65
